Time;durP1;ratioP1;P1;durP2;ratioP2;P2;SDS_P1;SDS_P2;PMS_P1;PMS_P2;Temp;Humidity;BMP_temperature;BMP_pressure;BME280_temperature;BME280_humidity;BME280_pressure;Samples;Min_cycle;Max_cycle;Signal;HPM_P1;HPM_P2
2024/02/12 00:01:10;;;;;;;26.85;14.70;;;;;;;;;;5026490;28;20222;-75
2024/02/12 00:03:38;;;;;;;24.95;14.55;;;;;;;;;;5033641;28;20182;-74
2024/02/12 00:06:04;;;;;;;27.00;14.73;;;;;;;;;;5032975;28;20237;-74
2024/02/12 00:08:30;;;;;;;25.52;14.82;;;;;;;;;;5025106;28;20551;-75
2024/02/12 00:10:58;;;;;;;27.27;15.23;;;;;;;;;;5043370;28;20182;-75
2024/02/12 00:13:24;;;;;;;28.88;15.98;;;;;;;;;;5035854;28;20209;-74
2024/02/12 00:15:49;;;;;;;25.23;14.75;;;;;;;;;;5036929;28;20210;-74
2024/02/12 00:18:15;;;;;;;30.95;16.20;;;;;;;;;;5037335;28;20316;-74
2024/02/12 00:20:41;;;;;;;35.33;16.25;;;;;;;;;;5036571;28;20595;-74
2024/02/12 00:23:07;;;;;;;37.35;17.80;;;;;;;;;;5030199;28;20228;-75
2024/02/12 00:25:33;;;;;;;32.30;17.05;;;;;;;;;;5029804;28;20200;-75
2024/02/12 00:27:58;;;;;;;29.30;14.88;;;;;;;;;;5036530;28;20190;-75
2024/02/12 00:30:24;;;;;;;29.10;16.30;;;;;;;;;;5027496;28;20244;-76
2024/02/12 00:32:49;;;;;;;35.72;17.45;;;;;;;;;;5038435;28;20212;-76
2024/02/12 00:35:15;;;;;;;35.55;17.88;;;;;;;;;;5034202;28;20243;-77
2024/02/12 00:37:41;;;;;;;34.63;17.58;;;;;;;;;;5032605;28;20251;-76
2024/02/12 00:40:08;;;;;;;33.30;18.52;;;;;;;;;;5029684;28;20204;-75
2024/02/12 00:42:34;;;;;;;38.92;18.88;;;;;;;;;;5029562;28;20193;-75
2024/02/12 00:45:03;;;;;;;38.28;18.52;;;;;;;;;;5039514;28;20193;-75
2024/02/12 00:47:28;;;;;;;34.50;18.30;;;;;;;;;;5032506;28;20621;-75
2024/02/12 00:49:54;;;;;;;35.65;18.63;;;;;;;;;;5029468;28;20194;-76
2024/02/12 00:52:23;;;;;;;38.63;18.67;;;;;;;;;;5019186;28;20187;-75
2024/02/12 00:54:51;;;;;;;35.97;18.95;;;;;;;;;;5039685;28;20190;-75
2024/02/12 00:57:17;;;;;;;36.22;18.35;;;;;;;;;;5028675;28;20295;-75
2024/02/12 00:59:43;;;;;;;36.97;18.43;;;;;;;;;;5031660;28;20608;-76
2024/02/12 01:02:11;;;;;;;46.47;19.23;;;;;;;;;;5048718;28;20223;-75
2024/02/12 01:04:37;;;;;;;44.30;21.33;;;;;;;;;;5022585;28;20276;-76
2024/02/12 01:07:03;;;;;;;40.67;20.60;;;;;;;;;;5048669;28;20280;-75
2024/02/12 01:09:29;;;;;;;36.40;18.23;;;;;;;;;;5037964;28;20205;-76
2024/02/12 01:11:59;;;;;;;42.33;20.17;;;;;;;;;;5048644;28;20193;-75
2024/02/12 01:14:26;;;;;;;38.60;18.65;;;;;;;;;;5028839;28;20182;-75
2024/02/12 01:16:52;;;;;;;42.80;21.08;;;;;;;;;;5029633;28;20186;-76
2024/02/12 01:19:18;;;;;;;40.10;20.02;;;;;;;;;;5035820;28;20211;-76
2024/02/12 01:21:43;;;;;;;45.20;21.43;;;;;;;;;;5030814;28;20735;-75
2024/02/12 01:24:08;;;;;;;44.67;21.48;;;;;;;;;;5010122;28;20269;-75
2024/02/12 01:26:37;;;;;;;46.58;21.67;;;;;;;;;;5037598;28;20563;-75
2024/02/12 01:29:05;;;;;;;43.35;22.17;;;;;;;;;;5037196;28;20692;-75
2024/02/12 01:31:31;;;;;;;44.33;22.13;;;;;;;;;;5029274;28;20255;-76
2024/02/12 01:33:57;;;;;;;45.80;22.90;;;;;;;;;;5031571;28;20190;-75
2024/02/12 01:36:22;;;;;;;50.42;22.95;;;;;;;;;;5049548;28;20193;-75
2024/02/12 01:38:48;;;;;;;50.65;24.00;;;;;;;;;;5038368;28;20410;-75
2024/02/12 01:41:16;;;;;;;51.95;22.35;;;;;;;;;;5040238;28;20263;-74
2024/02/12 01:43:42;;;;;;;54.40;24.73;;;;;;;;;;5038941;28;20201;-74
2024/02/12 01:46:08;;;;;;;53.53;23.88;;;;;;;;;;5036303;28;20629;-74
2024/02/12 01:48:37;;;;;;;57.05;25.67;;;;;;;;;;5035886;28;20220;-74
2024/02/12 01:51:08;;;;;;;51.33;24.58;;;;;;;;;;5025398;28;20198;-74
2024/02/12 01:53:35;;;;;;;57.33;25.00;;;;;;;;;;5015169;28;20527;-75
2024/02/12 01:56:08;;;;;;;54.55;26.08;;;;;;;;;;5024864;28;20582;-75
2024/02/12 01:58:41;;;;;;;52.97;23.98;;;;;;;;;;5032599;28;20243;-75
2024/02/12 02:01:10;;;;;;;57.47;25.42;;;;;;;;;;5028719;28;20308;-74
2024/02/12 02:03:36;;;;;;;52.22;25.13;;;;;;;;;;5018559;28;20303;-74
2024/02/12 02:06:01;;;;;;;55.33;26.13;;;;;;;;;;5018410;28;20273;-74
2024/02/12 02:08:36;;;;;;;46.15;24.60;;;;;;;;;;5027812;28;20582;-74
2024/02/12 02:11:11;;;;;;;54.90;25.27;;;;;;;;;;5027469;28;20205;-74
2024/02/12 02:13:44;;;;;;;59.75;24.60;;;;;;;;;;5015836;28;20198;-74
2024/02/12 02:16:15;;;;;;;51.35;24.35;;;;;;;;;;5029875;28;20212;-74
2024/02/12 02:18:45;;;;;;;54.53;25.05;;;;;;;;;;5028932;28;20280;-74
2024/02/12 02:21:12;;;;;;;50.92;24.33;;;;;;;;;;5032985;28;20218;-74
2024/02/12 02:23:41;;;;;;;54.47;24.92;;;;;;;;;;5029170;28;20269;-74
2024/02/12 02:26:06;;;;;;;52.97;24.35;;;;;;;;;;5027028;28;20209;-74
2024/02/12 02:28:31;;;;;;;50.03;25.17;;;;;;;;;;5017033;28;20198;-74
2024/02/12 02:30:57;;;;;;;55.60;26.60;;;;;;;;;;5028901;28;20189;-74
2024/02/12 02:33:22;;;;;;;57.85;26.25;;;;;;;;;;5000804;28;20616;-74
2024/02/12 02:35:48;;;;;;;55.08;25.02;;;;;;;;;;5016455;28;20206;-74
2024/02/12 02:38:17;;;;;;;56.08;24.70;;;;;;;;;;5018001;28;20310;-74
2024/02/12 02:40:43;;;;;;;57.38;25.60;;;;;;;;;;5031592;28;20211;-75
2024/02/12 02:43:09;;;;;;;61.80;26.88;;;;;;;;;;5026722;28;20197;-75
2024/02/12 02:45:35;;;;;;;53.17;24.55;;;;;;;;;;5032570;28;20182;-75
2024/02/12 02:48:02;;;;;;;60.25;26.10;;;;;;;;;;5024215;28;20211;-75
2024/02/12 02:50:29;;;;;;;64.10;26.80;;;;;;;;;;5030916;28;20699;-76
2024/02/12 02:52:55;;;;;;;53.75;25.55;;;;;;;;;;5028716;28;20221;-75
2024/02/12 02:55:22;;;;;;;55.13;26.48;;;;;;;;;;5026382;28;20190;-76
2024/02/12 02:57:48;;;;;;;52.03;25.45;;;;;;;;;;5024878;28;20688;-75
2024/02/12 03:00:15;;;;;;;56.40;26.25;;;;;;;;;;5029894;28;20190;-75
2024/02/12 03:02:41;;;;;;;59.97;27.40;;;;;;;;;;5007777;28;20281;-76
2024/02/12 03:05:08;;;;;;;64.38;27.20;;;;;;;;;;5023388;28;20209;-76
2024/02/12 03:07:36;;;;;;;58.88;26.55;;;;;;;;;;5027779;28;20517;-76
2024/02/12 03:10:02;;;;;;;55.60;26.38;;;;;;;;;;5027670;28;20209;-75
2024/02/12 03:12:30;;;;;;;57.08;25.60;;;;;;;;;;5033490;28;20191;-75
2024/02/12 03:14:57;;;;;;;50.35;25.67;;;;;;;;;;5029808;28;20272;-75
2024/02/12 03:17:22;;;;;;;49.75;24.23;;;;;;;;;;5040878;28;20268;-76
2024/02/12 03:19:48;;;;;;;56.08;25.88;;;;;;;;;;5028604;28;20294;-75
2024/02/12 03:22:14;;;;;;;55.47;27.15;;;;;;;;;;5022557;28;20217;-75
2024/02/12 03:24:39;;;;;;;58.75;26.33;;;;;;;;;;5023216;28;20191;-75
2024/02/12 03:27:05;;;;;;;54.28;26.30;;;;;;;;;;5041227;28;20264;-76
2024/02/12 03:29:32;;;;;;;51.40;26.02;;;;;;;;;;5024004;28;20547;-75
2024/02/12 03:31:58;;;;;;;56.15;25.90;;;;;;;;;;5024780;28;20186;-75
2024/02/12 03:34:25;;;;;;;59.03;27.10;;;;;;;;;;5031784;28;20235;-75
2024/02/12 03:36:50;;;;;;;62.00;28.08;;;;;;;;;;5034681;28;20190;-75
2024/02/12 03:39:16;;;;;;;62.20;27.30;;;;;;;;;;5045899;28;20265;-75
2024/02/12 03:41:41;;;;;;;58.38;27.88;;;;;;;;;;5039455;28;20287;-75
2024/02/12 03:44:09;;;;;;;62.70;27.17;;;;;;;;;;5027720;28;20193;-75
2024/02/12 03:46:39;;;;;;;61.65;29.98;;;;;;;;;;5029535;28;20868;-75
2024/02/12 04:00:09;;;;;;;67.07;30.52;;;;;;;;;;5030797;28;20242;-74
2024/02/12 04:02:35;;;;;;;63.58;30.85;;;;;;;;;;5035830;28;20272;-74
2024/02/12 04:05:01;;;;;;;67.10;30.70;;;;;;;;;;5023724;28;20182;-74
2024/02/12 04:07:27;;;;;;;61.50;30.23;;;;;;;;;;5027897;28;20202;-74
2024/02/12 04:09:52;;;;;;;66.38;29.90;;;;;;;;;;5025277;28;20608;-74
2024/02/12 04:12:18;;;;;;;66.15;30.77;;;;;;;;;;5033096;28;20645;-74
2024/02/12 04:14:43;;;;;;;61.28;29.75;;;;;;;;;;5021789;28;20182;-74
2024/02/12 04:17:09;;;;;;;69.38;30.70;;;;;;;;;;5030276;28;20315;-74
2024/02/12 04:19:38;;;;;;;61.17;30.50;;;;;;;;;;5029646;28;20205;-74
2024/02/12 04:22:09;;;;;;;58.83;30.00;;;;;;;;;;5025979;28;20209;-74
2024/02/12 04:24:39;;;;;;;63.65;29.70;;;;;;;;;;5017261;28;20194;-74
2024/02/12 04:27:05;;;;;;;62.33;29.60;;;;;;;;;;5035554;28;20190;-74
2024/02/12 04:29:32;;;;;;;61.90;31.80;;;;;;;;;;5014123;28;20655;-74
2024/02/12 04:31:58;;;;;;;62.30;30.38;;;;;;;;;;5019756;28;20619;-74
2024/02/12 04:34:23;;;;;;;65.15;30.98;;;;;;;;;;5024506;28;20312;-75
2024/02/12 04:36:55;;;;;;;66.25;30.77;;;;;;;;;;5000729;28;20212;-74
2024/02/12 04:39:20;;;;;;;66.53;30.42;;;;;;;;;;5000916;28;20236;-74
2024/02/12 04:41:46;;;;;;;71.75;31.55;;;;;;;;;;5026802;28;20249;-76
2024/02/12 04:44:12;;;;;;;62.00;30.92;;;;;;;;;;5023581;28;20199;-76
2024/02/12 04:46:37;;;;;;;68.95;32.90;;;;;;;;;;5032169;28;20196;-76
2024/02/12 04:49:04;;;;;;;65.10;31.13;;;;;;;;;;5029293;28;20194;-76
2024/02/12 04:51:33;;;;;;;68.40;32.30;;;;;;;;;;5031642;28;20182;-76
2024/02/12 04:53:59;;;;;;;68.28;31.63;;;;;;;;;;5028432;28;20194;-76
2024/02/12 04:56:24;;;;;;;63.03;31.42;;;;;;;;;;5036585;28;20628;-76
2024/02/12 04:58:50;;;;;;;71.20;31.08;;;;;;;;;;5025373;28;20212;-76
2024/02/12 05:01:16;;;;;;;68.03;33.30;;;;;;;;;;5027695;28;20267;-76
2024/02/12 05:03:41;;;;;;;66.15;31.95;;;;;;;;;;5029165;28;20255;-76
2024/02/12 05:06:07;;;;;;;71.25;32.95;;;;;;;;;;5042714;28;20226;-76
2024/02/12 05:08:32;;;;;;;68.80;31.92;;;;;;;;;;5034436;28;20202;-76
2024/02/12 05:10:58;;;;;;;73.70;33.57;;;;;;;;;;5021265;28;20190;-76
2024/02/12 05:13:24;;;;;;;73.07;33.28;;;;;;;;;;5024568;28;20324;-76
2024/02/12 05:15:52;;;;;;;73.95;34.95;;;;;;;;;;5036603;28;20217;-76
2024/02/12 05:23:48;;;;;;;86.05;35.03;;;;;;;;;;5024745;28;20209;-77
2024/02/12 05:26:14;;;;;;;78.93;35.13;;;;;;;;;;5024724;28;20551;-76
2024/02/12 05:28:40;;;;;;;86.20;36.42;;;;;;;;;;5029714;28;20324;-76
2024/02/12 05:31:05;;;;;;;79.75;34.60;;;;;;;;;;5031908;28;20182;-76
2024/02/12 05:33:31;;;;;;;75.20;34.78;;;;;;;;;;5020910;28;20191;-76
2024/02/12 05:35:57;;;;;;;81.10;35.33;;;;;;;;;;5037307;28;20225;-76
2024/02/12 05:38:23;;;;;;;74.77;34.53;;;;;;;;;;5028440;28;20200;-76
2024/02/12 05:40:48;;;;;;;85.15;37.22;;;;;;;;;;5029805;28;20209;-76
2024/02/12 05:43:14;;;;;;;84.60;35.13;;;;;;;;;;5038573;28;20241;-76
2024/02/12 05:45:40;;;;;;;88.38;37.30;;;;;;;;;;5045924;28;20243;-76
2024/02/12 05:48:06;;;;;;;87.15;37.83;;;;;;;;;;5016293;28;20236;-76
2024/02/12 05:50:32;;;;;;;79.68;34.78;;;;;;;;;;5028952;28;20248;-76
2024/02/12 05:52:57;;;;;;;84.10;33.97;;;;;;;;;;5032151;28;20313;-76
2024/02/12 05:55:22;;;;;;;86.78;36.75;;;;;;;;;;5010574;28;20187;-76
2024/02/12 05:57:48;;;;;;;80.43;33.33;;;;;;;;;;5027318;28;20189;-76
2024/02/12 06:00:14;;;;;;;71.38;31.67;;;;;;;;;;5020154;28;20191;-76
2024/02/12 06:02:41;;;;;;;90.47;35.25;;;;;;;;;;5012342;28;20187;-76
2024/02/12 06:05:07;;;;;;;86.97;37.25;;;;;;;;;;5013718;28;20212;-76
2024/02/12 06:07:33;;;;;;;101.40;37.88;;;;;;;;;;5015921;28;20648;-75
2024/02/12 06:09:58;;;;;;;100.88;38.30;;;;;;;;;;5031612;28;20205;-75
2024/02/12 06:12:24;;;;;;;91.78;39.70;;;;;;;;;;5027629;28;20453;-75
2024/02/12 06:14:49;;;;;;;103.20;39.97;;;;;;;;;;5030935;28;20261;-75
2024/02/12 06:17:17;;;;;;;98.28;38.70;;;;;;;;;;5025679;28;20356;-75
2024/02/12 06:19:43;;;;;;;103.30;39.97;;;;;;;;;;5026667;28;20244;-75
2024/02/12 06:22:10;;;;;;;96.72;39.58;;;;;;;;;;5036837;28;20218;-76
2024/02/12 06:24:36;;;;;;;97.15;38.97;;;;;;;;;;5029264;28;21837;-75
2024/02/12 06:27:01;;;;;;;95.20;40.60;;;;;;;;;;5031945;28;20197;-76
2024/02/12 06:29:27;;;;;;;95.97;41.53;;;;;;;;;;5022397;28;20217;-76
2024/02/12 06:31:52;;;;;;;93.63;39.10;;;;;;;;;;5001951;28;20660;-75
2024/02/12 06:34:18;;;;;;;100.97;41.85;;;;;;;;;;5040363;28;20536;-75
2024/02/12 06:36:43;;;;;;;91.75;39.38;;;;;;;;;;5025052;28;20214;-75
2024/02/12 06:39:09;;;;;;;97.65;41.22;;;;;;;;;;5001032;28;20236;-75
2024/02/12 06:41:34;;;;;;;92.03;39.42;;;;;;;;;;5024679;28;20221;-75
2024/02/12 06:44:00;;;;;;;100.15;41.58;;;;;;;;;;5024183;28;20281;-76
2024/02/12 06:46:26;;;;;;;96.15;41.53;;;;;;;;;;5029781;28;20197;-76
2024/02/12 06:48:51;;;;;;;102.15;40.95;;;;;;;;;;5014399;28;20669;-75
2024/02/12 06:51:17;;;;;;;95.00;40.53;;;;;;;;;;5006146;28;20316;-76
2024/02/12 06:53:44;;;;;;;99.43;40.63;;;;;;;;;;5041397;28;20219;-76
2024/02/12 06:56:10;;;;;;;93.53;38.90;;;;;;;;;;5028501;28;20715;-75
2024/02/12 06:58:36;;;;;;;88.72;38.92;;;;;;;;;;5020754;28;20186;-76
2024/02/12 07:01:04;;;;;;;89.00;39.25;;;;;;;;;;5027478;28;20279;-76
2024/02/12 07:03:32;;;;;;;85.53;37.63;;;;;;;;;;5020396;28;20190;-75
2024/02/12 07:05:58;;;;;;;94.78;38.67;;;;;;;;;;5027276;28;20186;-75
2024/02/12 07:08:24;;;;;;;90.15;38.97;;;;;;;;;;5038850;28;20239;-76
2024/02/12 07:10:49;;;;;;;92.45;38.95;;;;;;;;;;5014308;28;20194;-75
2024/02/12 07:13:16;;;;;;;81.47;37.58;;;;;;;;;;5021192;28;20602;-75
2024/02/12 07:15:41;;;;;;;82.65;37.92;;;;;;;;;;5035492;28;20213;-75
2024/02/12 07:18:08;;;;;;;85.13;37.30;;;;;;;;;;5028725;28;20260;-75
2024/02/12 07:20:33;;;;;;;86.82;36.78;;;;;;;;;;4999854;28;20182;-75
2024/02/12 07:22:59;;;;;;;91.17;37.53;;;;;;;;;;5037846;28;20193;-75
2024/02/12 07:25:25;;;;;;;83.85;36.58;;;;;;;;;;5030343;28;20189;-74
2024/02/12 07:27:51;;;;;;;81.30;37.17;;;;;;;;;;5036592;28;20181;-74
2024/02/12 07:30:17;;;;;;;92.15;36.78;;;;;;;;;;5038204;28;20182;-74
2024/02/12 07:32:42;;;;;;;75.90;36.05;;;;;;;;;;5039713;28;20218;-74
2024/02/12 07:35:10;;;;;;;79.57;35.53;;;;;;;;;;5022610;28;20186;-74
2024/02/12 07:37:41;;;;;;;79.65;34.55;;;;;;;;;;5031137;28;20521;-75
2024/02/12 07:40:10;;;;;;;81.50;36.85;;;;;;;;;;5031586;28;20206;-74
2024/02/12 07:42:36;;;;;;;75.23;33.43;;;;;;;;;;5036901;28;20206;-74
2024/02/12 07:45:02;;;;;;;68.83;34.43;;;;;;;;;;5029288;28;20194;-74
2024/02/12 07:47:28;;;;;;;76.63;33.40;;;;;;;;;;5034103;28;20215;-74
2024/02/12 07:49:53;;;;;;;67.45;32.47;;;;;;;;;;5039314;28;20194;-75
2024/02/12 07:52:19;;;;;;;76.57;33.22;;;;;;;;;;5037385;28;20261;-75
2024/02/12 07:54:44;;;;;;;69.63;32.97;;;;;;;;;;5029655;28;20190;-75
2024/02/12 07:57:12;;;;;;;71.20;33.00;;;;;;;;;;5033450;28;20193;-74
2024/02/12 07:59:39;;;;;;;73.18;33.60;;;;;;;;;;5038791;28;20178;-74
2024/02/12 08:02:06;;;;;;;74.83;32.07;;;;;;;;;;5027454;28;20237;-75
2024/02/12 08:04:31;;;;;;;68.00;33.27;;;;;;;;;;5025411;28;20239;-75
2024/02/12 08:06:57;;;;;;;69.85;31.98;;;;;;;;;;5021117;28;20805;-74
2024/02/12 08:09:23;;;;;;;71.88;31.30;;;;;;;;;;5038995;28;20596;-74
2024/02/12 08:11:50;;;;;;;61.27;29.93;;;;;;;;;;5031327;28;20209;-74
2024/02/12 08:14:16;;;;;;;68.53;31.33;;;;;;;;;;5030021;28;20266;-75
2024/02/12 08:16:45;;;;;;;67.63;30.77;;;;;;;;;;5018686;28;20190;-75
2024/02/12 08:19:11;;;;;;;68.35;32.42;;;;;;;;;;5027840;28;20221;-75
2024/02/12 08:21:36;;;;;;;71.63;31.35;;;;;;;;;;5039074;28;20220;-75
2024/02/12 08:24:03;;;;;;;62.85;29.63;;;;;;;;;;5050554;28;20193;-76
2024/02/12 08:26:29;;;;;;;69.43;31.15;;;;;;;;;;5034754;28;20641;-74
2024/02/12 08:28:55;;;;;;;65.72;30.75;;;;;;;;;;5030017;28;20312;-74
2024/02/12 08:31:20;;;;;;;64.53;29.75;;;;;;;;;;5029363;28;20253;-74
2024/02/12 08:33:47;;;;;;;67.90;30.00;;;;;;;;;;5030881;28;20213;-74
2024/02/12 08:36:14;;;;;;;63.35;29.08;;;;;;;;;;5030151;28;20577;-75
2024/02/12 08:38:40;;;;;;;61.15;28.95;;;;;;;;;;5024019;28;20667;-75
2024/02/12 08:41:05;;;;;;;65.80;29.30;;;;;;;;;;5037873;28;20235;-74
2024/02/12 08:43:31;;;;;;;62.75;28.38;;;;;;;;;;5046414;28;20201;-74
2024/02/12 08:45:56;;;;;;;63.40;30.30;;;;;;;;;;5036616;28;20190;-75
2024/02/12 08:48:22;;;;;;;69.50;29.45;;;;;;;;;;5049688;28;20657;-75
2024/02/12 08:50:49;;;;;;;62.90;29.30;;;;;;;;;;5047026;28;20451;-74
2024/02/12 08:53:15;;;;;;;61.80;28.80;;;;;;;;;;5043230;28;20197;-75
2024/02/12 08:55:40;;;;;;;67.15;30.80;;;;;;;;;;5003513;28;20251;-75
2024/02/12 08:58:09;;;;;;;60.78;30.35;;;;;;;;;;5045409;28;20632;-74
2024/02/12 09:00:35;;;;;;;59.03;28.98;;;;;;;;;;5036892;28;20617;-74
2024/02/12 09:03:02;;;;;;;60.83;29.30;;;;;;;;;;5039101;28;20246;-74
2024/02/12 09:05:27;;;;;;;60.38;30.80;;;;;;;;;;5033166;28;20278;-74
2024/02/12 09:07:53;;;;;;;67.65;29.80;;;;;;;;;;5023692;28;20277;-74
2024/02/12 09:10:18;;;;;;;68.15;30.77;;;;;;;;;;5035312;28;20192;-74
2024/02/12 09:12:44;;;;;;;70.78;29.63;;;;;;;;;;5037929;28;20578;-75
2024/02/12 09:15:16;;;;;;;59.35;30.48;;;;;;;;;;5049803;28;20219;-74
2024/02/12 09:17:44;;;;;;;66.68;30.52;;;;;;;;;;5038570;28;20240;-74
2024/02/12 09:20:12;;;;;;;71.28;31.25;;;;;;;;;;5039166;28;20523;-74
2024/02/12 09:22:38;;;;;;;66.80;30.08;;;;;;;;;;5025704;28;20241;-74
2024/02/12 09:25:04;;;;;;;68.65;30.25;;;;;;;;;;5039338;28;20315;-74
2024/02/12 09:27:30;;;;;;;61.35;28.63;;;;;;;;;;5048083;28;20699;-75
2024/02/12 09:29:56;;;;;;;64.05;29.55;;;;;;;;;;5015824;28;20623;-75
2024/02/12 09:32:22;;;;;;;64.80;29.13;;;;;;;;;;5011870;28;20603;-74
2024/02/12 09:34:47;;;;;;;64.63;28.85;;;;;;;;;;5036009;28;20230;-75
2024/02/12 09:37:13;;;;;;;54.85;27.65;;;;;;;;;;5041432;28;20645;-75
2024/02/12 09:39:38;;;;;;;59.78;27.67;;;;;;;;;;5042423;28;20319;-74
2024/02/12 09:42:05;;;;;;;57.58;27.45;;;;;;;;;;5050355;28;20208;-74
2024/02/12 09:44:33;;;;;;;52.80;27.50;;;;;;;;;;5034598;28;20273;-74
2024/02/12 09:47:04;;;;;;;48.95;25.65;;;;;;;;;;5029957;28;20284;-76
2024/02/12 09:49:31;;;;;;;45.50;22.27;;;;;;;;;;5050492;28;20201;-75
2024/02/12 09:51:57;;;;;;;42.25;22.50;;;;;;;;;;5042846;28;20195;-75
2024/02/12 09:54:23;;;;;;;49.42;23.55;;;;;;;;;;5041877;28;20264;-75
2024/02/12 09:56:50;;;;;;;42.33;22.80;;;;;;;;;;5032657;28;20274;-75
2024/02/12 09:59:16;;;;;;;43.33;22.80;;;;;;;;;;5042089;28;20190;-75
2024/02/12 10:01:41;;;;;;;47.33;23.50;;;;;;;;;;5033487;28;20264;-75
2024/02/12 10:04:07;;;;;;;46.97;22.10;;;;;;;;;;5030802;28;20186;-75
2024/02/12 10:06:32;;;;;;;47.17;23.17;;;;;;;;;;5036165;28;20214;-75
2024/02/12 10:09:08;;;;;;;43.63;21.42;;;;;;;;;;5037244;28;20674;-75
2024/02/12 10:11:34;;;;;;;41.45;20.50;;;;;;;;;;5039290;28;20211;-75
2024/02/12 10:14:05;;;;;;;38.10;21.65;;;;;;;;;;5040045;28;20254;-75
2024/02/12 10:16:34;;;;;;;48.45;21.52;;;;;;;;;;5048091;28;20185;-75
2024/02/12 10:19:00;;;;;;;40.85;21.70;;;;;;;;;;5045968;28;20328;-75
2024/02/12 10:21:26;;;;;;;36.92;20.42;;;;;;;;;;5042681;28;20240;-75
2024/02/12 10:23:51;;;;;;;43.58;21.20;;;;;;;;;;5029018;28;20190;-75
2024/02/12 10:26:24;;;;;;;38.05;20.63;;;;;;;;;;5048764;28;20550;-75
2024/02/12 10:29:00;;;;;;;39.95;19.65;;;;;;;;;;5038945;28;20194;-75
2024/02/12 10:31:26;;;;;;;40.53;20.98;;;;;;;;;;5034141;28;20178;-76
2024/02/12 10:33:52;;;;;;;41.38;20.98;;;;;;;;;;5029549;28;20232;-76
2024/02/12 10:36:20;;;;;;;36.28;20.95;;;;;;;;;;5036155;28;20187;-75
2024/02/12 10:38:49;;;;;;;37.00;19.40;;;;;;;;;;5036492;28;20657;-75
2024/02/12 10:41:34;;;;;;;35.85;18.70;;;;;;;;;;5032737;28;20210;-75
2024/02/12 10:44:00;;;;;;;37.00;18.55;;;;;;;;;;5003283;28;20551;-75
2024/02/12 10:46:31;;;;;;;36.35;18.20;;;;;;;;;;5044030;28;20602;-75
2024/02/12 10:48:58;;;;;;;29.95;17.40;;;;;;;;;;5039413;28;20634;-75
2024/02/12 10:51:24;;;;;;;33.22;16.83;;;;;;;;;;5032075;28;20191;-76
2024/02/12 10:53:50;;;;;;;32.55;17.58;;;;;;;;;;5037638;28;20671;-75
2024/02/12 10:56:17;;;;;;;32.47;16.63;;;;;;;;;;5010725;28;20190;-75
2024/02/12 10:58:44;;;;;;;34.63;17.15;;;;;;;;;;5041059;28;23166;-75
2024/02/12 11:01:14;;;;;;;31.25;17.95;;;;;;;;;;5036932;28;20216;-75
2024/02/12 11:03:49;;;;;;;27.08;15.95;;;;;;;;;;5048631;28;20189;-75
2024/02/12 11:06:18;;;;;;;26.58;15.88;;;;;;;;;;5039407;28;20205;-75
2024/02/12 11:08:48;;;;;;;31.60;15.77;;;;;;;;;;5019539;28;20191;-75
2024/02/12 11:11:22;;;;;;;28.05;15.73;;;;;;;;;;5040482;28;20548;-75
2024/02/12 11:13:59;;;;;;;31.50;16.00;;;;;;;;;;5038963;28;20185;-75
2024/02/12 11:16:29;;;;;;;29.35;16.35;;;;;;;;;;5033941;28;20192;-75
2024/02/12 11:18:57;;;;;;;29.15;15.48;;;;;;;;;;5018757;28;20233;-75
2024/02/12 11:21:26;;;;;;;30.30;16.25;;;;;;;;;;5041425;28;20696;-75
2024/02/12 11:24:04;;;;;;;29.23;15.43;;;;;;;;;;5033808;28;20213;-75
2024/02/12 11:26:54;;;;;;;28.17;14.52;;;;;;;;;;5049099;28;20254;-74
2024/02/12 11:29:19;;;;;;;22.02;14.07;;;;;;;;;;5032903;28;20289;-74
2024/02/12 11:31:47;;;;;;;24.75;13.45;;;;;;;;;;5029104;28;20341;-75
2024/02/12 11:34:21;;;;;;;27.83;14.50;;;;;;;;;;5027657;28;20201;-75
2024/02/12 11:37:00;;;;;;;23.20;14.13;;;;;;;;;;5038620;28;20211;-75
2024/02/12 11:39:25;;;;;;;24.63;14.20;;;;;;;;;;5041130;28;20222;-75
2024/02/12 11:41:51;;;;;;;21.73;12.73;;;;;;;;;;5036260;28;20279;-74
2024/02/12 11:44:16;;;;;;;24.50;12.90;;;;;;;;;;5034972;28;20190;-74
2024/02/12 11:46:42;;;;;;;21.55;12.85;;;;;;;;;;5035048;28;20190;-75
2024/02/12 11:49:08;;;;;;;23.40;12.48;;;;;;;;;;5027969;28;20660;-75
2024/02/12 11:51:37;;;;;;;23.20;12.40;;;;;;;;;;5042834;28;20262;-75
2024/02/12 11:54:05;;;;;;;18.73;11.77;;;;;;;;;;5025662;28;20193;-75
2024/02/12 11:56:32;;;;;;;20.08;11.48;;;;;;;;;;5029055;28;20209;-75
2024/02/12 11:58:58;;;;;;;19.60;11.57;;;;;;;;;;5013114;28;20206;-75
2024/02/12 12:01:28;;;;;;;23.27;12.15;;;;;;;;;;5025024;28;20656;-75
2024/02/12 12:03:54;;;;;;;21.23;11.88;;;;;;;;;;5030820;28;20268;-74
2024/02/12 12:06:22;;;;;;;24.95;12.18;;;;;;;;;;5027825;28;20553;-74
2024/02/12 12:08:48;;;;;;;24.15;12.48;;;;;;;;;;5026925;28;20192;-75
2024/02/12 12:11:23;;;;;;;20.92;12.93;;;;;;;;;;5025437;28;20248;-75
2024/02/12 12:13:59;;;;;;;20.83;12.05;;;;;;;;;;5026103;28;20185;-73
2024/02/12 12:16:27;;;;;;;20.73;11.32;;;;;;;;;;5032345;28;20232;-73
2024/02/12 12:18:53;;;;;;;21.10;11.13;;;;;;;;;;5031521;28;20623;-74
2024/02/12 12:21:19;;;;;;;25.33;12.13;;;;;;;;;;5034726;28;20637;-74
2024/02/12 12:23:45;;;;;;;19.27;10.80;;;;;;;;;;5039420;28;20190;-74
2024/02/12 12:26:11;;;;;;;21.00;10.88;;;;;;;;;;5033082;28;20640;-73
2024/02/12 12:28:37;;;;;;;18.05;10.45;;;;;;;;;;5028102;28;20668;-74
2024/02/12 12:31:04;;;;;;;16.10;9.95;;;;;;;;;;5024498;28;20178;-74
2024/02/12 12:33:34;;;;;;;20.15;10.02;;;;;;;;;;5025804;28;20218;-74
2024/02/12 12:35:59;;;;;;;17.75;9.57;;;;;;;;;;5040915;28;20222;-74
2024/02/12 12:38:25;;;;;;;17.08;9.70;;;;;;;;;;5031090;28;20209;-73
2024/02/12 12:40:50;;;;;;;20.75;9.85;;;;;;;;;;5028306;28;20931;-73
2024/02/12 12:43:20;;;;;;;17.95;9.27;;;;;;;;;;5027810;28;20632;-73
2024/02/12 12:45:45;;;;;;;14.80;8.70;;;;;;;;;;5024383;28;20186;-73
2024/02/12 12:48:11;;;;;;;16.83;9.23;;;;;;;;;;5032479;28;20188;-73
2024/02/12 12:50:38;;;;;;;16.83;8.73;;;;;;;;;;5047657;28;20181;-73
2024/02/12 12:53:04;;;;;;;15.70;8.07;;;;;;;;;;5030685;28;20190;-74
2024/02/12 12:55:29;;;;;;;14.23;8.73;;;;;;;;;;5036367;28;20699;-73
2024/02/12 12:57:55;;;;;;;13.68;7.18;;;;;;;;;;5038372;28;20193;-73
2024/02/12 13:00:26;;;;;;;13.25;7.65;;;;;;;;;;5029790;28;20705;-73
2024/02/12 13:02:53;;;;;;;13.25;7.43;;;;;;;;;;5019200;28;20209;-73
2024/02/12 13:05:20;;;;;;;11.77;7.05;;;;;;;;;;5031607;28;20203;-73
2024/02/12 13:07:46;;;;;;;14.20;7.28;;;;;;;;;;5029750;28;20525;-73
2024/02/12 13:10:11;;;;;;;15.32;7.30;;;;;;;;;;5039721;28;20248;-74
2024/02/12 13:12:38;;;;;;;12.38;6.72;;;;;;;;;;5029711;28;20182;-73
2024/02/12 13:15:09;;;;;;;11.68;6.75;;;;;;;;;;5035162;28;20254;-73
2024/02/12 13:17:35;;;;;;;15.18;6.45;;;;;;;;;;5040227;28;20241;-74
2024/02/12 13:20:00;;;;;;;12.95;6.97;;;;;;;;;;5038103;28;20213;-74
2024/02/12 13:22:26;;;;;;;14.43;6.75;;;;;;;;;;5044105;28;20210;-74
2024/02/12 13:24:52;;;;;;;10.80;6.90;;;;;;;;;;5031364;28;20247;-74
2024/02/12 13:27:17;;;;;;;11.48;6.15;;;;;;;;;;5034718;28;20190;-74
2024/02/12 13:29:43;;;;;;;12.23;5.90;;;;;;;;;;5030491;28;20240;-74
2024/02/12 13:32:08;;;;;;;9.10;4.80;;;;;;;;;;5032138;28;20549;-74
2024/02/12 13:34:34;;;;;;;9.77;4.65;;;;;;;;;;5037901;28;20197;-74
2024/02/12 13:37:00;;;;;;;8.23;4.45;;;;;;;;;;5034381;28;20316;-74
2024/02/12 13:39:27;;;;;;;7.88;4.10;;;;;;;;;;5027814;28;20197;-74
2024/02/12 13:41:53;;;;;;;9.55;3.85;;;;;;;;;;5032179;28;20217;-74
2024/02/12 13:44:19;;;;;;;14.98;4.20;;;;;;;;;;5033918;28;20308;-74
2024/02/12 13:46:44;;;;;;;8.45;3.88;;;;;;;;;;5036151;28;20694;-75
2024/02/12 13:49:11;;;;;;;9.30;4.00;;;;;;;;;;5042584;28;20185;-74
2024/02/12 13:51:37;;;;;;;8.50;3.88;;;;;;;;;;5048936;28;20530;-74
2024/02/12 13:54:07;;;;;;;8.05;3.88;;;;;;;;;;5038550;28;20290;-75
2024/02/12 13:56:33;;;;;;;9.88;4.32;;;;;;;;;;5028324;28;20197;-74
2024/02/12 13:58:59;;;;;;;7.97;3.25;;;;;;;;;;5028626;28;20463;-74
2024/02/12 14:01:24;;;;;;;8.10;3.40;;;;;;;;;;5029427;28;20210;-74
2024/02/12 14:03:50;;;;;;;9.00;2.83;;;;;;;;;;5032114;28;20178;-74
2024/02/12 14:06:16;;;;;;;8.45;2.60;;;;;;;;;;5039416;28;20679;-75
2024/02/12 14:08:41;;;;;;;5.20;2.40;;;;;;;;;;5034686;28;20224;-74
2024/02/12 14:11:06;;;;;;;6.43;2.30;;;;;;;;;;5048733;28;20294;-74
2024/02/12 14:13:32;;;;;;;5.72;1.90;;;;;;;;;;5035840;28;20186;-74
2024/02/12 14:15:59;;;;;;;4.53;2.22;;;;;;;;;;5032686;28;20201;-74
2024/02/12 14:18:26;;;;;;;5.47;2.25;;;;;;;;;;5036146;28;20553;-74
2024/02/12 14:20:53;;;;;;;6.53;2.50;;;;;;;;;;5036815;28;20821;-74
2024/02/12 14:23:19;;;;;;;7.75;2.53;;;;;;;;;;5033413;28;20258;-74
2024/02/12 14:25:47;;;;;;;6.38;2.72;;;;;;;;;;5031224;28;20186;-74
2024/02/12 14:28:13;;;;;;;4.95;2.53;;;;;;;;;;5040239;28;20182;-73
2024/02/12 14:30:39;;;;;;;4.43;2.60;;;;;;;;;;5039042;28;20205;-73
2024/02/12 14:33:06;;;;;;;7.18;2.75;;;;;;;;;;5026898;28;20557;-73